Time;durP1;ratioP1;P1;durP2;ratioP2;P2;SDS_P1;SDS_P2;PMS_P1;PMS_P2;Temp;Humidity;BMP_temperature;BMP_pressure;BME280_temperature;BME280_humidity;BME280_pressure;Samples;Min_cycle;Max_cycle;Signal;HPM_P1;HPM_P2
2022/03/13 00:02:04;;;;;;;6.13;5.40;;;;;;;2.25;49.79;100725.13;5051310;28;20516;-73
2022/03/13 00:04:29;;;;;;;5.17;4.60;;;;;;;2.27;49.21;100721.09;5050939;28;20198;-72
2022/03/13 00:06:56;;;;;;;5.43;4.90;;;;;;;2.36;49.26;100711.53;5050952;28;20226;-72
2022/03/13 00:09:22;;;;;;;6.53;4.80;;;;;;;2.39;49.02;100715.59;5051002;28;20738;-72
2022/03/13 00:11:52;;;;;;;8.13;4.33;;;;;;;2.53;48.86;100716.84;5050860;28;20167;-72
2022/03/13 00:14:19;;;;;;;8.67;5.27;;;;;;;2.57;48.42;100726.06;5050407;28;20423;-72
2022/03/13 00:16:45;;;;;;;6.57;4.87;;;;;;;2.58;48.17;100725.00;5050520;28;20193;-75
2022/03/13 00:19:11;;;;;;;6.10;5.37;;;;;;;2.57;47.97;100720.66;5050627;28;20186;-72
2022/03/13 00:21:36;;;;;;;5.53;4.73;;;;;;;2.55;48.39;100705.81;5050681;28;20175;-72
2022/03/13 00:24:02;;;;;;;5.10;4.40;;;;;;;2.57;48.03;100717.97;5050732;28;20211;-72
2022/03/13 00:26:28;;;;;;;7.13;4.13;;;;;;;2.84;46.92;100722.59;5050443;28;20203;-72
2022/03/13 00:28:54;;;;;;;9.47;5.60;;;;;;;2.93;46.81;100721.09;5050237;28;20205;-73
2022/03/13 00:31:20;;;;;;;4.77;4.23;;;;;;;3.02;46.65;100716.84;5050523;28;20587;-73
2022/03/13 00:33:45;;;;;;;4.70;4.13;;;;;;;3.02;46.58;100729.53;5050573;28;20654;-72
2022/03/13 00:36:10;;;;;;;12.53;4.40;;;;;;;3.02;46.58;100722.25;5050486;28;20511;-74
2022/03/13 00:38:36;;;;;;;5.47;4.33;;;;;;;2.98;47.00;100724.63;5050719;28;20737;-74
2022/03/13 00:41:01;;;;;;;8.30;4.67;;;;;;;2.85;47.13;100708.03;5050207;28;20514;-74
2022/03/13 00:43:28;;;;;;;6.23;4.90;;;;;;;2.76;47.65;100710.38;5050364;28;20167;-74
2022/03/13 00:45:54;;;;;;;3.80;2.43;;;;;;;2.61;48.30;100712.91;5050433;28;20794;-74
2022/03/13 00:48:21;;;;;;;4.90;3.70;;;;;;;2.54;48.20;100709.56;5050081;28;20254;-73
2022/03/13 00:50:47;;;;;;;2.93;2.73;;;;;;;2.51;48.04;100713.59;5050333;28;20304;-72
2022/03/13 00:53:13;;;;;;;4.17;3.57;;;;;;;2.47;48.54;100712.47;5050164;28;20278;-74
2022/03/13 00:55:39;;;;;;;3.33;3.03;;;;;;;2.50;47.91;100709.25;5050144;28;20175;-73
2022/03/13 00:58:05;;;;;;;5.23;4.03;;;;;;;2.59;47.45;100706.91;5050007;28;20189;-72
2022/03/13 01:00:30;;;;;;;5.73;5.13;;;;;;;2.62;47.54;100709.13;5050287;28;20261;-75
2022/03/13 01:02:56;;;;;;;8.13;5.33;;;;;;;2.28;47.71;100694.97;5050208;28;20172;-72
2022/03/13 01:05:24;;;;;;;7.97;5.67;;;;;;;1.45;51.76;100715.59;5050182;28;20191;-74
2022/03/13 01:07:55;;;;;;;11.40;6.13;;;;;;;1.27;53.19;100713.91;5049887;28;20638;-74
2022/03/13 01:10:21;;;;;;;9.23;5.63;;;;;;;1.19;54.41;100714.34;5050077;28;20171;-72
2022/03/13 01:12:49;;;;;;;6.07;5.47;;;;;;;1.04;54.91;100714.88;5050370;28;20167;-72
2022/03/13 01:15:15;;;;;;;5.90;5.13;;;;;;;1.09;55.32;100725.72;5032046;28;20584;-75
2022/03/13 01:17:42;;;;;;;6.23;5.63;;;;;;;1.00;55.60;100718.28;5049785;28;20183;-74
2022/03/13 01:20:16;;;;;;;5.83;5.20;;;;;;;0.98;56.04;100717.72;5049857;28;20178;-74
2022/03/13 01:22:41;;;;;;;7.30;6.53;;;;;;;0.69;56.68;100716.88;5050134;28;20240;-72
2022/03/13 01:25:07;;;;;;;6.97;6.27;;;;;;;1.00;54.92;100726.34;5049994;28;20524;-71
2022/03/13 01:27:34;;;;;;;5.70;5.17;;;;;;;1.26;53.44;100717.69;5049900;28;20203;-73
2022/03/13 01:29:59;;;;;;;5.53;5.03;;;;;;;1.60;51.82;100715.03;5054017;28;20178;-74
2022/03/13 01:32:25;;;;;;;4.90;3.40;;;;;;;1.84;50.83;100712.94;5053872;28;20525;-74
2022/03/13 01:34:51;;;;;;;5.63;5.13;;;;;;;2.01;49.60;100705.63;5053751;28;20190;-74
2022/03/13 01:37:34;;;;;;;5.53;4.97;;;;;;;2.08;49.52;100709.81;5053520;28;20171;-74
2022/03/13 01:40:04;;;;;;;5.83;5.23;;;;;;;1.57;50.82;100700.16;5053858;28;20398;-74
2022/03/13 01:42:30;;;;;;;6.03;5.17;;;;;;;1.50;52.42;100699.50;5054204;28;20198;-74
2022/03/13 01:44:56;;;;;;;10.17;4.80;;;;;;;1.78;50.74;100702.09;5053635;28;20168;-74
2022/03/13 01:47:21;;;;;;;3.50;3.20;;;;;;;1.94;50.10;100699.63;5053332;28;20269;-74
2022/03/13 01:49:47;;;;;;;5.03;4.30;;;;;;;2.01;49.49;100702.94;5053592;28;20259;-74
2022/03/13 01:52:15;;;;;;;4.97;4.57;;;;;;;2.04;49.06;100694.38;5053445;28;20462;-72
2022/03/13 01:54:43;;;;;;;5.90;4.47;;;;;;;1.89;49.75;100691.47;5035579;28;20262;-75
2022/03/13 01:57:10;;;;;;;5.53;5.03;;;;;;;1.83;50.14;100695.16;5053134;28;20186;-74
2022/03/13 01:59:35;;;;;;;5.97;5.47;;;;;;;1.62;50.86;100692.16;5053371;28;20164;-74
2022/03/13 02:02:02;;;;;;;4.60;4.20;;;;;;;1.75;51.11;100688.31;5053291;28;20270;-72
2022/03/13 02:04:30;;;;;;;6.27;5.20;;;;;;;1.64;51.24;100684.66;5053466;28;20270;-72
2022/03/13 02:06:56;;;;;;;7.03;4.70;;;;;;;1.69;50.88;100689.28;5052999;28;20604;-73
2022/03/13 02:09:22;;;;;;;6.00;5.40;;;;;;;1.61;51.73;100676.25;5053226;28;20186;-73
2022/03/13 02:11:50;;;;;;;5.67;4.60;;;;;;;1.51;51.70;100673.41;5053039;28;20666;-73
2022/03/13 02:14:17;;;;;;;6.23;5.63;;;;;;;1.44;52.30;100687.00;5052658;28;20171;-72
2022/03/13 02:16:43;;;;;;;6.20;5.40;;;;;;;1.26;52.32;100666.53;5052842;28;20608;-73
2022/03/13 02:19:08;;;;;;;5.70;5.10;;;;;;;1.05;52.08;100662.72;5053014;28;20262;-73
2022/03/13 02:21:45;;;;;;;6.70;5.80;;;;;;;0.90;53.54;100662.44;5053302;28;20225;-76
2022/03/13 02:24:15;;;;;;;5.67;5.17;;;;;;;0.96;53.37;100655.28;5053022;28;20559;-73
2022/03/13 02:26:42;;;;;;;7.20;5.37;;;;;;;0.94;53.35;100654.69;5052750;28;20238;-73
2022/03/13 02:29:12;;;;;;;6.90;5.50;;;;;;;1.11;53.19;100660.91;5052579;28;20191;-73
2022/03/13 02:31:38;;;;;;;6.37;5.63;;;;;;;0.85;53.84;100656.97;5052735;28;20190;-73
2022/03/13 02:34:08;;;;;;;6.00;5.40;;;;;;;0.78;53.93;100650.94;5053120;28;20589;-73
2022/03/13 02:36:37;;;;;;;6.90;5.53;;;;;;;0.82;53.49;100654.75;5052973;28;20179;-73
2022/03/13 02:39:04;;;;;;;6.90;5.67;;;;;;;0.89;54.00;100658.94;5051688;28;20180;-72
2022/03/13 02:41:29;;;;;;;5.87;5.37;;;;;;;0.89;53.20;100660.81;5052207;28;20212;-73
2022/03/13 02:43:56;;;;;;;7.90;6.33;;;;;;;0.52;54.33;100642.38;5052717;28;20206;-75
2022/03/13 02:46:23;;;;;;;5.20;4.70;;;;;;;0.51;55.20;100646.13;5034556;28;20206;-73
2022/03/13 02:48:51;;;;;;;7.43;5.83;;;;;;;0.25;55.76;100647.50;5052678;28;20213;-73
2022/03/13 02:51:16;;;;;;;5.90;5.30;;;;;;;0.23;56.38;100655.00;5052283;28;20718;-72
2022/03/13 02:53:42;;;;;;;7.33;4.90;;;;;;;0.66;55.62;100661.72;5052560;28;20270;-73
2022/03/13 02:56:08;;;;;;;6.20;5.27;;;;;;;0.65;55.19;100656.59;5052264;28;20171;-73
2022/03/13 02:58:34;;;;;;;6.70;4.70;;;;;;;0.88;53.34;100667.25;5052008;28;20180;-73
2022/03/13 03:01:00;;;;;;;6.57;4.63;;;;;;;1.21;51.13;100662.97;5052742;28;20179;-73
2022/03/13 03:03:26;;;;;;;6.30;5.00;;;;;;;0.71;52.73;100644.88;5052681;28;20175;-71
2022/03/13 03:05:51;;;;;;;7.50;6.70;;;;;;;0.44;54.63;100645.47;5052001;28;20210;-73
2022/03/13 03:08:17;;;;;;;7.80;6.60;;;;;;;0.19;55.98;100653.03;5051847;28;20194;-72
2022/03/13 03:10:43;;;;;;;7.33;5.23;;;;;;;0.39;55.14;100664.16;5052096;28;20262;-72
2022/03/13 03:13:13;;;;;;;5.60;4.93;;;;;;;0.45;54.64;100651.66;5052075;28;20171;-73
2022/03/13 03:15:39;;;;;;;10.30;5.20;;;;;;;0.66;53.54;100653.66;5051654;28;20179;-73
2022/03/13 03:18:06;;;;;;;4.97;4.43;;;;;;;0.87;52.10;100653.00;5051634;28;20213;-73
2022/03/13 03:20:32;;;;;;;4.00;3.67;;;;;;;1.13;51.45;100658.78;5052065;28;20167;-73
2022/03/13 03:22:58;;;;;;;5.30;4.80;;;;;;;1.28;50.99;100655.53;5051973;28;20179;-72
2022/03/13 03:25:26;;;;;;;5.00;4.50;;;;;;;1.16;50.71;100652.94;5051691;28;20286;-73
2022/03/13 03:27:53;;;;;;;5.87;4.70;;;;;;;1.05;51.33;100643.88;5051503;28;20236;-72
2022/03/13 03:30:38;;;;;;;5.23;4.60;;;;;;;1.05;51.60;100648.44;5051672;28;20206;-73
2022/03/13 03:33:04;;;;;;;5.00;4.50;;;;;;;1.03;51.26;100640.63;5051637;28;20171;-72
2022/03/13 03:35:30;;;;;;;7.17;5.53;;;;;;;1.05;51.58;100640.38;5051713;28;20254;-73
2022/03/13 03:37:56;;;;;;;5.80;5.20;;;;;;;1.05;51.65;100649.25;5051353;28;20202;-73
2022/03/13 03:40:24;;;;;;;5.87;4.83;;;;;;;0.90;52.52;100646.31;5051416;28;20598;-72
2022/03/13 03:42:49;;;;;;;5.63;5.07;;;;;;;0.80;53.08;100648.81;5051462;28;20183;-72
2022/03/13 03:45:18;;;;;;;6.80;6.10;;;;;;;0.37;54.40;100655.53;5051192;28;20194;-74
2022/03/13 03:47:45;;;;;;;5.83;5.33;;;;;;;-0.01;56.36;100654.22;5051111;28;20684;-75
2022/03/13 03:50:10;;;;;;;7.80;5.83;;;;;;;-0.32;57.96;100654.59;5051146;28;20634;-73
2022/03/13 03:52:36;;;;;;;5.90;5.17;;;;;;;-0.48;58.59;100666.03;5050975;28;20163;-72
2022/03/13 03:55:01;;;;;;;6.17;5.30;;;;;;;-0.49;59.55;100654.50;5051221;28;20540;-73
2022/03/13 03:57:27;;;;;;;7.17;5.40;;;;;;;-0.41;59.41;100651.47;5050797;28;20578;-73
2022/03/13 03:59:52;;;;;;;7.80;5.83;;;;;;;-0.42;59.92;100660.56;5050946;28;20182;-73
2022/03/13 04:02:18;;;;;;;6.47;5.77;;;;;;;-0.53;59.80;100650.66;5051134;28;20175;-73
2022/03/13 04:04:43;;;;;;;6.73;5.93;;;;;;;-0.47;59.86;100667.69;5050994;28;20179;-73
2022/03/13 04:07:08;;;;;;;6.03;5.33;;;;;;;-0.38;59.84;100653.69;5050597;28;20666;-73
2022/03/13 04:09:34;;;;;;;6.70;5.77;;;;;;;-0.47;60.66;100654.25;5050903;28;20186;-73
2022/03/13 04:11:59;;;;;;;6.00;5.50;;;;;;;-0.71;60.56;100656.94;5050840;28;20175;-73
2022/03/13 04:14:25;;;;;;;7.90;5.67;;;;;;;-0.70;60.72;100649.72;5050445;28;20206;-73
2022/03/13 04:16:52;;;;;;;6.93;6.13;;;;;;;-1.02;61.28;100643.81;5050648;28;20185;-72
2022/03/13 04:19:19;;;;;;;7.10;5.97;;;;;;;-1.18;62.15;100644.47;5050793;28;20183;-72
2022/03/13 04:21:45;;;;;;;6.30;5.70;;;;;;;-1.27;62.82;100652.88;5050707;28;20175;-72
2022/03/13 04:24:11;;;;;;;7.57;6.37;;;;;;;-1.33;62.90;100656.44;5050865;28;20518;-73
2022/03/13 04:26:40;;;;;;;6.93;6.27;;;;;;;-1.50;63.97;100644.72;5050663;28;20206;-73
2022/03/13 04:29:09;;;;;;;6.97;6.27;;;;;;;-1.62;64.69;100643.84;5050239;28;20194;-74
2022/03/13 04:31:36;;;;;;;9.30;7.10;;;;;;;-1.71;65.57;100647.91;5050703;28;20172;-73
2022/03/13 04:34:02;;;;;;;7.87;6.47;;;;;;;-1.80;66.18;100660.78;5050408;28;20468;-75
2022/03/13 04:36:32;;;;;;;8.53;5.73;;;;;;;-1.82;66.47;100652.97;5050532;28;20418;-73
2022/03/13 04:38:57;;;;;;;6.77;5.13;;;;;;;-1.74;67.10;100648.34;5050235;28;20183;-73
2022/03/13 04:41:23;;;;;;;11.80;6.47;;;;;;;-1.64;67.32;100657.47;5050544;28;20181;-73
2022/03/13 04:43:48;;;;;;;7.70;5.50;;;;;;;-1.53;66.73;100655.91;5050562;28;20167;-73
2022/03/13 04:46:17;;;;;;;6.73;6.00;;;;;;;-1.63;66.81;100658.28;5032326;28;20210;-73
2022/03/13 04:48:42;;;;;;;7.07;6.13;;;;;;;-1.76;66.67;100647.75;5050092;28;20229;-74
2022/03/13 04:51:09;;;;;;;6.20;5.60;;;;;;;-1.62;66.89;100655.38;5032464;28;20426;-73
2022/03/13 04:53:35;;;;;;;6.57;5.97;;;;;;;-1.60;66.69;100657.84;5050605;28;20205;-73
2022/03/13 04:56:00;;;;;;;8.07;6.07;;;;;;;-1.47;66.87;100649.63;5050314;28;20892;-73
2022/03/13 04:58:25;;;;;;;11.93;5.97;;;;;;;-1.40;66.42;100658.41;5049896;28;20167;-73
2022/03/13 05:00:51;;;;;;;6.40;5.80;;;;;;;-1.36;66.32;100656.91;5050196;28;20171;-73
2022/03/13 05:03:17;;;;;;;8.30;5.50;;;;;;;-1.30;65.53;100657.88;5031658;28;20171;-72
2022/03/13 05:05:42;;;;;;;5.97;5.20;;;;;;;-1.16;65.56;100647.75;5050049;28;20939;-73
2022/03/13 05:08:15;;;;;;;8.33;5.03;;;;;;;-1.12;64.35;100647.06;5049793;28;20262;-73
2022/03/13 05:10:46;;;;;;;7.43;5.63;;;;;;;-1.16;64.45;100645.06;5050112;28;20163;-74
2022/03/13 05:13:14;;;;;;;6.27;5.60;;;;;;;-1.10;63.88;100649.53;5050284;28;20902;-73
2022/03/13 05:15:40;;;;;;;6.73;4.93;;;;;;;-0.98;62.62;100655.75;5049712;28;20425;-73
2022/03/13 05:18:07;;;;;;;5.43;4.87;;;;;;;-0.92;62.63;100660.97;5031720;28;20457;-73
2022/03/13 05:20:34;;;;;;;8.07;5.90;;;;;;;-0.80;61.91;100666.38;5049924;28;20171;-73
2022/03/13 05:23:00;;;;;;;7.73;5.20;;;;;;;-0.64;61.86;100668.38;5049960;28;20631;-73
2022/03/13 05:25:30;;;;;;;5.73;5.23;;;;;;;-0.61;62.79;100661.72;5049862;28;20209;-73
2022/03/13 05:27:55;;;;;;;6.80;6.10;;;;;;;-0.82;62.88;100662.28;5049472;28;20195;-73
2022/03/13 05:30:21;;;;;;;6.00;5.40;;;;;;;-1.11;62.74;100653.25;5049944;28;20263;-72
2022/03/13 05:32:48;;;;;;;7.23;5.80;;;;;;;-1.34;64.08;100651.31;5049832;28;20171;-74
2022/03/13 05:35:14;;;;;;;7.73;6.00;;;;;;;-1.68;65.47;100658.97;5049828;28;20241;-73
2022/03/13 05:37:39;;;;;;;8.00;5.27;;;;;;;-1.69;66.05;100648.50;5049521;28;20814;-72
2022/03/13 05:40:06;;;;;;;6.00;4.90;;;;;;;-1.46;66.35;100659.28;5049949;28;20171;-73
2022/03/13 05:42:31;;;;;;;8.53;6.17;;;;;;;-1.47;66.60;100668.38;5050242;28;20210;-73
2022/03/13 05:44:57;;;;;;;7.03;5.83;;;;;;;-1.45;66.74;100658.25;5049734;28;20483;-73
2022/03/13 05:47:23;;;;;;;7.33;4.97;;;;;;;-1.70;66.98;100649.53;5049362;28;20207;-73
2022/03/13 05:49:49;;;;;;;8.80;5.37;;;;;;;-1.79;67.00;100649.00;5049776;28;20175;-73
2022/03/13 05:52:16;;;;;;;6.43;5.50;;;;;;;-1.73;66.70;100653.50;5049712;28;20418;-72
2022/03/13 05:54:42;;;;;;;6.90;5.50;;;;;;;-1.72;66.05;100657.81;5049767;28;20558;-73
2022/03/13 05:57:10;;;;;;;8.20;5.40;;;;;;;-1.72;66.30;100657.00;5049431;28;20913;-73
2022/03/13 05:59:37;;;;;;;7.30;5.63;;;;;;;-1.68;66.18;100658.16;5049547;28;20422;-73
2022/03/13 06:02:07;;;;;;;7.30;4.97;;;;;;;-1.65;66.25;100663.06;5049628;28;20425;-73
2022/03/13 06:04:35;;;;;;;7.13;4.83;;;;;;;-1.65;66.42;100657.72;5049577;28;20183;-73
2022/03/13 06:07:01;;;;;;;6.00;4.93;;;;;;;-1.43;66.73;100672.25;5049260;28;20465;-73
2022/03/13 06:09:26;;;;;;;7.37;5.60;;;;;;;-1.12;66.19;100675.75;5049543;28;20181;-73
2022/03/13 06:11:52;;;;;;;6.33;5.17;;;;;;;-0.94;66.40;100681.03;5049623;28;20168;-72
2022/03/13 06:14:18;;;;;;;7.53;6.00;;;;;;;-0.88;66.03;100681.97;5050635;28;20583;-73
2022/03/13 06:16:44;;;;;;;7.70;5.23;;;;;;;-1.06;66.03;100674.81;5052730;28;20173;-73
2022/03/13 06:19:09;;;;;;;6.07;5.47;;;;;;;-1.13;66.13;100671.44;5052958;28;20237;-73
2022/03/13 06:21:34;;;;;;;5.57;4.93;;;;;;;-1.14;66.02;100673.31;5053040;28;20174;-73
2022/03/13 06:24:00;;;;;;;6.63;6.03;;;;;;;-1.08;65.43;100669.69;5052889;28;20175;-73
2022/03/13 06:26:25;;;;;;;7.30;5.50;;;;;;;-1.00;65.08;100677.41;5052791;28;20194;-73
2022/03/13 06:28:50;;;;;;;5.40;4.90;;;;;;;-0.83;64.23;100684.78;5052510;28;20191;-73
2022/03/13 06:31:16;;;;;;;6.67;5.30;;;;;;;-0.70;63.18;100690.78;5052912;28;20527;-73
2022/03/13 06:33:41;;;;;;;6.30;5.33;;;;;;;-0.73;63.40;100688.53;5052803;28;20707;-75
2022/03/13 06:36:07;;;;;;;6.27;5.67;;;;;;;-0.63;63.44;100686.09;5053015;28;20198;-73
2022/03/13 06:38:33;;;;;;;5.93;5.33;;;;;;;-0.47;63.24;100691.81;5052247;28;20167;-72
2022/03/13 06:40:58;;;;;;;5.33;4.83;;;;;;;-0.32;62.09;100682.25;5052585;28;20623;-72
2022/03/13 06:43:23;;;;;;;6.47;5.80;;;;;;;-0.14;61.25;100678.66;5052514;28;20183;-74
2022/03/13 06:45:49;;;;;;;7.50;5.13;;;;;;;-0.09;61.09;100683.31;5052426;28;20203;-73
2022/03/13 06:48:15;;;;;;;6.70;5.77;;;;;;;-0.25;62.88;100684.03;5052235;28;20197;-75
2022/03/13 06:50:41;;;;;;;10.43;6.00;;;;;;;-0.30;64.02;100682.03;5052614;28;20176;-73
2022/03/13 06:53:06;;;;;;;6.67;6.07;;;;;;;-0.33;65.34;100682.50;5052403;28;20174;-73
2022/03/13 06:55:32;;;;;;;7.53;6.43;;;;;;;-0.43;66.70;100688.47;5052725;28;20653;-73
2022/03/13 06:57:57;;;;;;;7.10;6.17;;;;;;;-0.46;67.50;100696.97;5052025;28;20186;-73
2022/03/13 07:00:22;;;;;;;6.80;5.80;;;;;;;-0.43;67.04;100688.47;5052196;28;20179;-73
2022/03/13 07:02:51;;;;;;;7.00;6.40;;;;;;;-0.38;65.78;100696.63;5052235;28;20207;-72
2022/03/13 07:05:19;;;;;;;6.70;5.73;;;;;;;-0.26;65.03;100691.28;5052153;28;20850;-72
2022/03/13 07:07:44;;;;;;;6.23;5.30;;;;;;;-0.10;64.96;100703.97;5051893;28;20171;-72
2022/03/13 07:10:13;;;;;;;8.93;6.20;;;;;;;0.04;64.65;100709.13;5052005;28;20240;-73
2022/03/13 07:12:41;;;;;;;6.00;5.40;;;;;;;0.22;63.83;100704.41;5052067;28;20171;-73
2022/03/13 07:15:10;;;;;;;6.97;5.87;;;;;;;0.50;61.63;100702.81;5052018;28;20172;-73
2022/03/13 07:17:36;;;;;;;5.90;5.10;;;;;;;0.63;60.52;100710.59;5051800;28;20175;-72
2022/03/13 07:20:01;;;;;;;6.00;5.00;;;;;;;0.74;59.09;100722.38;5051751;28;20206;-73
2022/03/13 07:22:26;;;;;;;5.73;5.13;;;;;;;0.81;58.75;100706.91;5052086;28;20546;-72
2022/03/13 07:24:52;;;;;;;8.37;6.07;;;;;;;0.85;58.52;100703.50;5051911;28;20171;-73
2022/03/13 07:27:17;;;;;;;7.40;6.10;;;;;;;0.94;58.48;100711.19;5050890;28;20213;-72
2022/03/13 07:29:43;;;;;;;6.00;5.40;;;;;;;0.97;58.44;100708.00;5051833;28;20244;-72
2022/03/13 07:32:09;;;;;;;7.37;6.53;;;;;;;0.96;59.12;100699.13;5051611;28;20631;-73
2022/03/13 07:34:34;;;;;;;6.20;5.60;;;;;;;1.04;59.05;100701.44;5051696;28;20255;-73
2022/03/13 07:36:59;;;;;;;6.23;5.63;;;;;;;1.19;59.55;100701.69;5051361;28;20344;-73
2022/03/13 07:39:25;;;;;;;8.87;6.70;;;;;;;1.23;58.44;100695.81;5051486;28;20198;-73
2022/03/13 07:41:52;;;;;;;7.97;5.90;;;;;;;1.28;57.91;100696.72;5051527;28;20171;-72
2022/03/13 07:44:17;;;;;;;6.00;5.50;;;;;;;1.42;57.77;100687.25;5051689;28;20177;-73
2022/03/13 07:46:43;;;;;;;6.50;5.83;;;;;;;1.53;57.32;100690.94;5033262;28;20210;-73
2022/03/13 07:49:08;;;;;;;5.93;5.33;;;;;;;1.63;56.66;100691.09;5051221;28;20183;-73
2022/03/13 07:51:34;;;;;;;8.40;5.63;;;;;;;1.78;56.30;100685.13;5051676;28;20171;-73
2022/03/13 07:54:00;;;;;;;6.77;6.07;;;;;;;1.93;56.26;100689.91;5033341;28;20179;-72
2022/03/13 07:56:25;;;;;;;7.33;6.10;;;;;;;2.03;56.27;100692.75;5051083;28;20182;-73
2022/03/13 07:58:50;;;;;;;8.57;6.93;;;;;;;2.18;56.32;100687.56;5050859;28;20175;-73
2022/03/13 08:01:16;;;;;;;6.73;5.97;;;;;;;2.38;55.94;100695.91;5051138;28;20210;-73
2022/03/13 08:03:44;;;;;;;8.07;6.53;;;;;;;2.45;55.12;100690.31;5051013;28;20199;-73
2022/03/13 08:06:10;;;;;;;5.33;4.83;;;;;;;2.50;54.51;100703.06;5050860;28;20209;-73
2022/03/13 08:08:35;;;;;;;7.70;6.67;;;;;;;2.68;54.75;100702.72;5050887;28;20631;-73
2022/03/13 08:11:01;;;;;;;8.00;6.90;;;;;;;2.77;53.85;100695.81;5051179;28;20208;-73
2022/03/13 08:13:26;;;;;;;8.07;5.70;;;;;;;2.94;53.29;100699.25;5051253;28;20171;-72
2022/03/13 08:15:52;;;;;;;5.47;4.97;;;;;;;3.04;52.25;100695.84;5050674;28;20175;-73
2022/03/13 08:18:17;;;;;;;6.63;5.90;;;;;;;3.11;51.92;100690.22;5050555;28;20229;-74
2022/03/13 08:20:43;;;;;;;7.47;5.53;;;;;;;3.27;51.55;100702.78;5032797;28;20182;-73
2022/03/13 08:23:08;;;;;;;7.20;6.10;;;;;;;3.41;52.14;100706.69;5050756;28;20175;-74
2022/03/13 08:25:34;;;;;;;6.80;5.70;;;;;;;3.51;52.69;100700.56;5050769;28;20199;-72
2022/03/13 08:28:00;;;;;;;5.80;5.20;;;;;;;3.56;52.15;100695.19;5050286;28;20179;-74
2022/03/13 08:30:25;;;;;;;8.13;6.80;;;;;;;3.67;51.46;100694.19;5050550;28;20232;-73
2022/03/13 08:32:51;;;;;;;6.27;5.67;;;;;;;3.87;50.53;100693.50;5050545;28;20183;-73
2022/03/13 08:35:17;;;;;;;6.67;5.63;;;;;;;3.95;50.09;100687.63;5050653;28;20461;-73
2022/03/13 08:37:42;;;;;;;6.20;5.33;;;;;;;3.99;49.61;100688.72;5049361;28;20179;-72
2022/03/13 08:40:09;;;;;;;6.07;5.47;;;;;;;4.12;48.70;100682.84;5050465;28;20182;-75
2022/03/13 08:42:34;;;;;;;5.43;4.90;;;;;;;4.22;48.76;100692.91;5050428;28;20179;-73
2022/03/13 08:45:00;;;;;;;5.53;5.00;;;;;;;4.42;48.81;100678.66;5050811;28;20190;-73
2022/03/13 08:47:26;;;;;;;5.60;5.03;;;;;;;4.51;48.85;100676.25;5050250;28;20203;-73
2022/03/13 08:49:52;;;;;;;7.00;6.10;;;;;;;4.56;48.48;100679.78;5050549;28;20231;-72
2022/03/13 08:52:17;;;;;;;5.77;5.10;;;;;;;4.73;48.43;100679.56;5050496;28;20757;-73
2022/03/13 08:54:43;;;;;;;5.73;4.77;;;;;;;4.90;48.62;100679.31;5050254;28;20187;-72
2022/03/13 08:57:09;;;;;;;5.50;4.53;;;;;;;5.06;47.82;100676.41;5050662;28;20185;-73
2022/03/13 08:59:35;;;;;;;5.43;5.00;;;;;;;5.14;47.08;100677.75;5050192;28;20535;-72
2022/03/13 09:02:01;;;;;;;6.47;5.87;;;;;;;5.21;47.38;100675.59;5050243;28;20171;-72
2022/03/13 09:04:27;;;;;;;5.47;4.47;;;;;;;5.29;47.11;100671.53;5050121;28;20181;-73
2022/03/13 09:06:54;;;;;;;6.93;5.07;;;;;;;5.38;47.18;100678.03;5050173;28;20249;-73
2022/03/13 09:09:20;;;;;;;5.07;4.57;;;;;;;5.33;46.92;100672.59;5050434;28;20262;-72
2022/03/13 09:11:47;;;;;;;10.27;7.47;;;;;;;5.39;47.06;100663.41;5050146;28;20167;-73
2022/03/13 09:14:13;;;;;;;7.13;6.10;;;;;;;5.64;46.72;100663.41;5050034;28;20262;-73
2022/03/13 09:16:40;;;;;;;7.40;5.17;;;;;;;5.83;46.94;100674.47;5050157;28;20174;-72
2022/03/13 09:19:05;;;;;;;6.67;5.97;;;;;;;5.88;46.12;100660.91;5049919;28;20177;-73
2022/03/13 09:21:32;;;;;;;5.90;5.30;;;;;;;5.89;46.03;100651.69;5032243;28;20187;-72
2022/03/13 09:23:57;;;;;;;6.77;6.20;;;;;;;6.01;45.74;100658.72;5032072;28;20680;-72
2022/03/13 09:26:23;;;;;;;6.90;5.50;;;;;;;6.14;45.68;100650.81;5049875;28;20230;-72
2022/03/13 09:28:48;;;;;;;6.90;5.47;;;;;;;6.19;45.23;100656.22;5049568;28;20187;-73
2022/03/13 09:31:14;;;;;;;6.20;5.60;;;;;;;6.26;44.93;100656.75;5049937;28;20254;-72
2022/03/13 09:33:39;;;;;;;6.47;5.57;;;;;;;6.56;42.89;100661.22;5050116;28;20186;-72
2022/03/13 09:36:05;;;;;;;6.37;5.77;;;;;;;6.65;42.16;100658.72;5049890;28;20180;-72
2022/03/13 09:38:30;;;;;;;6.13;5.53;;;;;;;6.70;41.67;100656.00;5049702;28;20546;-73
2022/03/13 09:40:55;;;;;;;6.43;5.60;;;;;;;6.80;41.48;100664.09;5049727;28;20627;-73
2022/03/13 09:43:21;;;;;;;7.23;5.23;;;;;;;7.12;40.88;100669.03;5049986;28;20183;-72
2022/03/13 09:45:47;;;;;;;6.23;4.90;;;;;;;7.16;40.75;100670.09;5050057;28;20285;-73
2022/03/13 09:48:15;;;;;;;5.40;4.90;;;;;;;7.27;40.54;100668.13;5049561;28;20661;-72
2022/03/13 09:50:42;;;;;;;6.93;5.53;;;;;;;7.35;40.04;100658.53;5053438;28;20213;-72
2022/03/13 09:53:07;;;;;;;6.53;5.27;;;;;;;7.46;40.16;100665.50;5053581;28;20175;-72
2022/03/13 09:55:32;;;;;;;6.03;4.90;;;;;;;7.57;40.01;100655.38;5053524;28;20190;-73
2022/03/13 09:57:58;;;;;;;6.43;5.73;;;;;;;7.73;40.25;100665.00;5053060;28;20258;-73
2022/03/13 10:00:24;;;;;;;6.43;5.47;;;;;;;7.77;39.54;100657.88;5053633;28;20171;-72
2022/03/13 10:02:53;;;;;;;7.07;5.40;;;;;;;7.74;40.00;100663.91;5053501;28;20175;-73
2022/03/13 10:05:22;;;;;;;7.97;6.10;;;;;;;7.87;39.52;100646.09;5053415;28;20229;-72
2022/03/13 10:07:59;;;;;;;6.03;5.53;;;;;;;8.04;39.65;100649.97;5053719;28;20178;-72
2022/03/13 10:10:45;;;;;;;5.80;5.20;;;;;;;8.22;39.98;100634.78;5053241;28;20183;-72
2022/03/13 10:13:14;;;;;;;6.10;5.50;;;;;;;8.48;39.70;100634.50;5052654;28;20266;-72
2022/03/13 10:15:47;;;;;;;5.37;4.87;;;;;;;8.61;39.31;100634.59;5052991;28;20178;-72
2022/03/13 10:18:23;;;;;;;5.73;5.23;;;;;;;8.75;38.54;100626.50;5053430;28;20175;-72
2022/03/13 10:20:49;;;;;;;5.20;4.77;;;;;;;8.90;37.88;100606.38;5052953;28;20171;-72
2022/03/13 10:23:16;;;;;;;5.40;4.80;;;;;;;9.05;39.09;100619.78;5052964;28;20178;-72
2022/03/13 10:25:43;;;;;;;5.20;4.70;;;;;;;9.28;37.91;100615.31;5052759;28;20699;-73
2022/03/13 10:28:26;;;;;;;4.67;4.27;;;;;;;9.53;37.95;100600.41;5052536;28;20187;-72
2022/03/13 10:30:55;;;;;;;4.90;4.50;;;;;;;9.70;36.93;100614.31;5052837;28;20182;-72
2022/03/13 10:33:20;;;;;;;5.00;4.50;;;;;;;9.82;36.60;100611.06;5052841;28;20619;-72
2022/03/13 10:35:47;;;;;;;5.00;4.50;;;;;;;9.96;35.26;100605.63;5052890;28;20182;-73
2022/03/13 10:38:22;;;;;;;4.57;4.17;;;;;;;10.04;36.10;100594.81;5052399;28;20222;-73
2022/03/13 10:40:57;;;;;;;5.13;4.53;;;;;;;9.82;35.13;100591.97;5052480;28;20194;-74
2022/03/13 10:43:26;;;;;;;5.00;4.60;;;;;;;10.04;36.38;100589.34;5052615;28;20179;-72
2022/03/13 10:45:53;;;;;;;6.20;4.97;;;;;;;10.05;34.57;100584.69;5052490;28;20681;-74
2022/03/13 10:48:33;;;;;;;4.90;4.50;;;;;;;10.07;34.31;100571.56;5052298;28;20175;-72
2022/03/13 10:51:04;;;;;;;5.30;4.80;;;;;;;10.21;35.51;100571.53;5052895;28;20171;-73
2022/03/13 10:53:31;;;;;;;5.20;4.70;;;;;;;10.10;33.89;100571.75;5052321;28;20636;-72
2022/03/13 10:56:03;;;;;;;5.40;4.90;;;;;;;10.17;34.33;100578.72;5052534;28;20531;-72
2022/03/13 10:58:30;;;;;;;8.00;5.03;;;;;;;10.32;34.04;100571.06;5052107;28;20186;-73
2022/03/13 11:01:23;;;;;;;7.47;4.33;;;;;;;10.26;33.21;100560.53;5051144;28;20203;-72
2022/03/13 11:03:54;;;;;;;5.27;4.80;;;;;;;10.37;34.17;100565.47;5049215;28;20687;-72
2022/03/13 11:06:25;;;;;;;5.93;5.40;;;;;;;10.63;34.34;100576.63;5052157;28;20215;-72
2022/03/13 11:08:55;;;;;;;5.67;5.20;;;;;;;10.63;32.90;100562.16;5051895;28;20171;-72
2022/03/13 11:11:27;;;;;;;4.77;4.37;;;;;;;10.71;32.69;100559.50;5052061;28;20587;-73
2022/03/13 11:14:01;;;;;;;4.97;4.57;;;;;;;10.75;32.78;100556.97;5034146;28;20529;-72
2022/03/13 11:16:28;;;;;;;4.50;4.07;;;;;;;11.01;33.27;100552.50;5051800;28;20509;-72
2022/03/13 11:18:55;;;;;;;5.33;4.83;;;;;;;11.05;32.14;100541.75;5051827;28;20221;-72
2022/03/13 11:21:22;;;;;;;4.73;4.33;;;;;;;11.09;32.25;100542.72;5051901;28;20632;-72
2022/03/13 11:23:49;;;;;;;4.57;4.17;;;;;;;11.22;32.82;100539.09;5051859;28;20225;-72
2022/03/13 11:26:19;;;;;;;7.37;4.67;;;;;;;11.30;32.21;100534.81;5051721;28;20195;-72
2022/03/13 11:28:46;;;;;;;5.80;5.30;;;;;;;11.35;33.82;100536.59;5051442;28;20282;-72